createdAt,value
2022-12-11T00:03:02.809Z,32.58
2022-12-11T00:07:56.584Z,32.20
2022-12-11T00:12:49.806Z,32.70
2022-12-11T00:17:43.554Z,32.72
2022-12-11T00:27:30.159Z,31.10
2022-12-11T00:32:28.326Z,32.13
2022-12-11T00:37:23.424Z,35.63
2022-12-11T00:42:17.178Z,36.22
2022-12-11T00:47:10.782Z,38.50
2022-12-11T00:52:05.213Z,37.25
2022-12-11T00:56:59.423Z,39.50
2022-12-11T01:01:53.081Z,43.05
2022-12-11T01:11:40.045Z,38.80
2022-12-11T01:16:33.177Z,39.75
2022-12-11T01:21:26.901Z,39.13
2022-12-11T01:26:20.253Z,40.88
2022-12-11T01:31:15.050Z,41.17
2022-12-11T01:36:17.019Z,42.97
2022-12-11T01:41:10.513Z,40.80
2022-12-11T01:46:04.866Z,40.33
2022-12-11T01:51:01.407Z,41.50
2022-12-11T01:55:56.548Z,39.30
2022-12-11T02:00:50.819Z,39.05
2022-12-11T02:05:45.325Z,39.72
2022-12-11T02:11:01.956Z,38.05
2022-12-11T02:16:08.067Z,37.45
2022-12-11T02:21:09.124Z,37.08
2022-12-11T02:26:32.948Z,36.35
2022-12-11T02:32:12.111Z,39.00
2022-12-11T02:37:25.443Z,41.13
2022-12-11T02:42:18.634Z,42.30
2022-12-11T02:47:14.558Z,43.63
2022-12-11T02:52:27.549Z,38.97
2022-12-11T02:57:25.436Z,42.33
2022-12-11T03:02:19.694Z,41.30
2022-12-11T03:07:20.883Z,40.05
2022-12-11T03:12:18.746Z,41.00
2022-12-11T03:17:19.214Z,38.78
2022-12-11T03:22:34.962Z,38.88
2022-12-11T03:27:50.334Z,41.60
2022-12-11T03:32:49.769Z,44.25
2022-12-11T03:37:46.369Z,42.72
2022-12-11T03:42:40.469Z,39.33
2022-12-11T03:47:34.501Z,40.97
2022-12-11T03:52:28.831Z,42.47
2022-12-11T03:57:23.721Z,44.47
2022-12-11T04:02:24.257Z,37.85
2022-12-11T04:07:18.383Z,39.25
2022-12-11T04:12:12.918Z,37.53
2022-12-11T04:17:06.708Z,33.60
2022-12-11T04:22:18.486Z,32.47
2022-12-11T04:27:11.550Z,34.85
2022-12-11T04:32:04.469Z,30.70
2022-12-11T04:36:57.963Z,29.25
2022-12-11T04:46:44.790Z,30.38
2022-12-11T04:51:38.488Z,29.63
2022-12-11T04:56:32.342Z,32.47
2022-12-11T05:01:26.033Z,32.22
2022-12-11T05:06:20.702Z,39.47
2022-12-11T05:11:15.737Z,34.47
2022-12-11T05:16:10.232Z,41.15
2022-12-11T05:21:09.496Z,34.03
2022-12-11T05:26:05.939Z,36.92
2022-12-11T05:31:16.161Z,33.03
2022-12-11T05:36:09.718Z,35.10
2022-12-11T05:41:07.005Z,36.40
2022-12-11T05:46:15.333Z,40.20
2022-12-11T05:51:09.434Z,37.58
2022-12-11T05:56:07.834Z,34.60
2022-12-11T06:01:01.480Z,32.25
2022-12-11T06:10:51.878Z,38.20
2022-12-11T06:15:46.920Z,31.52
2022-12-11T06:20:40.719Z,28.35
2022-12-11T06:25:35.228Z,27.67
2022-12-11T06:30:37.677Z,27.73
2022-12-11T06:35:40.093Z,28.10
2022-12-11T06:40:35.795Z,29.15
2022-12-11T06:45:29.393Z,28.33
2022-12-11T06:50:24.492Z,24.95
2022-12-11T06:55:18.514Z,26.92
2022-12-11T07:00:14.708Z,31.58
2022-12-11T07:05:10.174Z,30.75
2022-12-11T07:10:07.913Z,29.95
2022-12-11T07:15:05.119Z,23.35
2022-12-11T07:19:59.187Z,24.38
2022-12-11T07:24:52.959Z,24.20
2022-12-11T07:29:47.280Z,26.42
2022-12-11T07:34:50.076Z,24.42
2022-12-11T07:39:46.637Z,24.50
2022-12-11T07:44:41.539Z,23.65
2022-12-11T07:49:35.095Z,38.30
2022-12-11T07:59:22.612Z,32.75
2022-12-11T08:04:16.426Z,57.17
2022-12-11T08:09:17.477Z,92.10
2022-12-11T08:14:14.895Z,16.77
2022-12-11T08:19:09.444Z,15.82
2022-12-11T08:24:02.993Z,18.90
2022-12-11T08:28:56.930Z,18.50
2022-12-11T08:33:51.854Z,19.33
2022-12-11T08:38:46.678Z,18.00
2022-12-11T08:43:39.443Z,19.02
2022-12-11T08:48:34.082Z,18.35
2022-12-11T08:53:29.142Z,18.63
2022-12-11T08:58:22.904Z,16.52
2022-12-11T09:03:16.798Z,19.60
2022-12-11T09:08:11.052Z,16.23
2022-12-11T09:13:06.156Z,14.65
2022-12-11T09:17:59.357Z,13.75
2022-12-11T09:22:52.806Z,15.77
2022-12-11T09:27:46.839Z,94.05
2022-12-11T09:32:40.365Z,108.13
2022-12-11T09:42:51.927Z,15.43
2022-12-11T09:47:50.169Z,24.55
2022-12-11T09:53:01.655Z,35.22
2022-12-11T09:58:16.718Z,15.50
2022-12-11T10:03:36.137Z,16.77
2022-12-11T10:08:38.131Z,15.82
2022-12-11T10:13:40.166Z,14.60
2022-12-11T10:18:35.073Z,14.55
2022-12-11T10:23:35.789Z,13.68
2022-12-11T10:28:30.254Z,13.65
2022-12-11T10:33:28.815Z,14.43
2022-12-11T10:38:42.917Z,14.15
2022-12-11T10:43:41.699Z,12.10
2022-12-11T10:48:41.234Z,11.35
2022-12-11T10:53:41.397Z,11.27
2022-12-11T10:58:39.794Z,12.38
2022-12-11T11:03:53.598Z,11.43
2022-12-11T11:08:50.029Z,11.55
2022-12-11T11:13:44.545Z,13.75
2022-12-11T11:18:39.576Z,16.45
2022-12-11T11:23:32.765Z,13.20
2022-12-11T11:28:31.798Z,13.90
2022-12-11T11:33:24.759Z,12.55
2022-12-11T11:38:21.855Z,16.55
2022-12-11T11:43:29.213Z,15.35
2022-12-11T11:48:47.067Z,13.98
2022-12-11T11:53:42.493Z,14.20
2022-12-11T11:58:42.322Z,12.48
2022-12-11T12:03:37.398Z,12.35
2022-12-11T12:08:39.118Z,12.70
2022-12-11T12:13:56.782Z,22.80
2022-12-11T12:18:58.862Z,13.85
2022-12-11T12:24:19.782Z,12.67
2022-12-11T12:29:21.892Z,11.15
2022-12-11T12:34:33.758Z,12.05
2022-12-11T12:40:04.327Z,10.98
2022-12-11T12:45:15.167Z,10.77
2022-12-11T12:50:15.584Z,10.40
2022-12-11T12:55:18.951Z,10.23
2022-12-11T13:00:13.832Z,11.73
2022-12-11T13:05:20.610Z,10.88
2022-12-11T13:10:34.390Z,11.00
2022-12-11T13:15:30.596Z,11.30
2022-12-11T13:20:25.533Z,10.00
2022-12-11T13:25:47.413Z,9.82
2022-12-11T13:30:41.820Z,8.82
2022-12-11T13:35:36.724Z,10.02
2022-12-11T13:40:43.563Z,9.43
2022-12-11T13:45:47.683Z,9.13
2022-12-11T13:50:44.915Z,10.07
2022-12-11T13:55:39.546Z,10.70
2022-12-11T14:00:33.410Z,8.15
2022-12-11T14:05:26.590Z,8.02
2022-12-11T14:10:30.958Z,9.57
2022-12-11T14:15:24.957Z,9.50
2022-12-11T14:20:25.279Z,8.73
2022-12-11T14:25:28.227Z,9.93
2022-12-11T14:30:24.105Z,8.37
2022-12-11T14:35:39.457Z,6.28
2022-12-11T14:40:40.148Z,7.70
2022-12-11T14:45:39.754Z,6.55
2022-12-11T14:50:48.190Z,6.60
2022-12-11T14:55:41.655Z,7.05
2022-12-11T15:05:38.871Z,7.50
2022-12-11T15:11:04.780Z,15.55
2022-12-11T15:15:58.772Z,7.68
2022-12-11T15:20:57.556Z,7.57
2022-12-11T15:25:56.073Z,6.72
2022-12-11T15:30:58.652Z,9.18
2022-12-11T15:35:57.235Z,5.60
2022-12-11T15:40:51.069Z,7.18
2022-12-11T15:45:44.297Z,4.93
2022-12-11T15:50:38.179Z,4.28
2022-12-11T15:55:35.266Z,6.22
2022-12-11T16:00:28.561Z,4.80
2022-12-11T16:05:21.857Z,4.60
2022-12-11T16:10:16.861Z,4.35
2022-12-11T16:15:16.332Z,6.05
2022-12-11T16:20:15.078Z,3.90
2022-12-11T16:25:10.279Z,4.75
2022-12-11T16:30:08.412Z,4.32
2022-12-11T16:35:03.892Z,5.50
2022-12-11T16:39:58.158Z,5.03
2022-12-11T16:44:53.055Z,5.90
2022-12-11T16:49:46.735Z,4.13
2022-12-11T16:54:40.989Z,4.43
2022-12-11T16:59:37.367Z,4.82
2022-12-11T17:04:31.843Z,5.78
2022-12-11T17:09:25.859Z,4.97
2022-12-11T17:14:20.434Z,4.63
2022-12-11T17:19:13.705Z,5.78
2022-12-11T17:24:07.956Z,7.57
2022-12-11T17:29:01.534Z,8.43
2022-12-11T17:33:54.982Z,7.10
2022-12-11T17:38:50.238Z,6.72
2022-12-11T17:43:45.614Z,6.10
2022-12-11T17:48:39.325Z,6.07
2022-12-11T17:53:34.285Z,9.23
2022-12-11T17:58:28.955Z,8.68
2022-12-11T18:03:23.240Z,7.65
2022-12-11T18:08:20.422Z,7.80
2022-12-11T18:13:13.990Z,7.20
2022-12-11T18:18:07.993Z,12.65
2022-12-11T18:23:01.757Z,10.10
2022-12-11T18:32:50.936Z,11.20
2022-12-11T18:37:47.282Z,11.48
2022-12-11T18:42:40.718Z,11.98
2022-12-11T18:47:35.338Z,10.82
2022-12-11T18:52:29.809Z,10.10
2022-12-11T18:57:23.881Z,10.80
2022-12-11T19:07:11.119Z,12.90
2022-12-11T19:12:05.222Z,14.02
2022-12-11T19:17:00.543Z,13.38
2022-12-11T19:21:53.323Z,12.60
2022-12-11T19:26:45.694Z,13.63
2022-12-11T19:31:40.145Z,17.80
2022-12-11T19:36:35.928Z,15.15
2022-12-11T19:41:30.800Z,20.08
2022-12-11T19:46:25.466Z,16.63
2022-12-11T19:51:25.714Z,22.55
2022-12-11T19:56:21.119Z,19.48
2022-12-11T20:01:29.490Z,20.42
2022-12-11T20:06:23.160Z,18.42
2022-12-11T20:16:12.449Z,19.70
2022-12-11T20:21:08.825Z,18.05
2022-12-11T20:26:14.527Z,15.27
2022-12-11T20:31:19.485Z,20.42
2022-12-11T20:36:15.923Z,17.88
2022-12-11T20:41:16.974Z,16.90
2022-12-11T20:46:13.428Z,18.80
2022-12-11T20:51:08.581Z,18.75
2022-12-11T20:56:01.282Z,17.83
2022-12-11T21:00:55.089Z,23.65
2022-12-11T21:05:49.246Z,32.20
2022-12-11T21:10:44.441Z,32.40
2022-12-11T21:15:39.716Z,26.02
2022-12-11T21:20:33.035Z,24.55
2022-12-11T21:25:26.704Z,21.88
2022-12-11T21:30:20.503Z,18.27
2022-12-11T21:35:13.741Z,19.85
2022-12-11T21:50:15.916Z,17.93
2022-12-11T21:55:09.954Z,20.10
2022-12-11T22:00:03.728Z,23.25
2022-12-11T22:05:05.808Z,23.30
2022-12-11T22:09:59.646Z,23.33
2022-12-11T22:14:52.256Z,21.23
2022-12-11T22:19:45.700Z,24.17
2022-12-11T22:24:38.903Z,21.63
2022-12-11T22:29:32.243Z,19.93
2022-12-11T22:34:27.826Z,19.50
2022-12-11T22:39:28.746Z,19.95
2022-12-11T22:44:24.742Z,16.58
2022-12-11T22:49:20.435Z,18.05
2022-12-11T22:54:15.301Z,17.65
2022-12-11T22:59:09.519Z,17.38
2022-12-11T23:04:03.715Z,17.45
2022-12-11T23:09:01.143Z,19.35
2022-12-11T23:13:57.096Z,19.65
2022-12-11T23:18:52.276Z,20.48
2022-12-11T23:23:46.257Z,20.95
2022-12-11T23:28:41.099Z,21.70
2022-12-11T23:33:38.729Z,20.70
2022-12-11T23:38:32.229Z,19.73
2022-12-11T23:43:27.325Z,20.33
2022-12-11T23:48:21.202Z,22.13
2022-12-11T23:53:14.972Z,19.60
2022-12-11T23:58:13.981Z,21.83
